Ashmore, Illinois
Current Conditions -  °F | °C
As of 6:53 AM on Thursday 30 Oct 2014 (Local Time) from KMTO Reporting Station
Clear Clear  
Wind Chill: 33°   Ceiling: Unl
Heat Index: 33°   Visibility: 10mi
Dew Point: 32°   Wind: 3mph
Humidity: 96%   Direction: 180°S
Pressure: 30.15"   Gusts: NA
Location:  39.53°N, 88.02°W
Report Text: KMTO 301153Z AUTO 18003KT 10SM CLR 01/00 A3015 RMK AO2 SLP215 T00060000 10033 20000 56002
Loading
Personal Weather Stations






























Interactive Weather Map
Tropical Storm Tracking
New forecast layout! Learn more

10-Day Weather Forecast

Advertisements
Track Severe Weather on mobile